sensor_id;sensor_type;location;lat;lon;timestamp;P1;durP1;ratioP1;P2;durP2;ratioP2
57826;SDS011;43656;57.746;11.780;2024-02-26T00:00:29;2.00;;;1.40;;
57826;SDS011;43656;57.746;11.780;2024-02-26T00:02:55;2.40;;;1.40;;
57826;SDS011;43656;57.746;11.780;2024-02-26T00:05:20;1.40;;;1.30;;
57826;SDS011;43656;57.746;11.780;2024-02-26T00:07:45;1.80;;;1.38;;
57826;SDS011;43656;57.746;11.780;2024-02-26T00:10:12;1.77;;;1.45;;
57826;SDS011;43656;57.746;11.780;2024-02-26T00:12:38;1.75;;;1.25;;
57826;SDS011;43656;57.746;11.780;2024-02-26T00:15:04;1.80;;;1.35;;
57826;SDS011;43656;57.746;11.780;2024-02-26T00:17:30;2.05;;;1.40;;
57826;SDS011;43656;57.746;11.780;2024-02-26T00:19:56;2.95;;;1.73;;
57826;SDS011;43656;57.746;11.780;2024-02-26T00:22:21;1.30;;;1.20;;
57826;SDS011;43656;57.746;11.780;2024-02-26T00:24:47;1.60;;;1.48;;
57826;SDS011;43656;57.746;11.780;2024-02-26T00:27:13;2.55;;;1.30;;
57826;SDS011;43656;57.746;11.780;2024-02-26T00:29:38;1.83;;;1.27;;
57826;SDS011;43656;57.746;11.780;2024-02-26T00:32:04;1.40;;;1.30;;
57826;SDS011;43656;57.746;11.780;2024-02-26T00:34:29;1.70;;;1.40;;
57826;SDS011;43656;57.746;11.780;2024-02-26T00:36:55;2.00;;;1.50;;
57826;SDS011;43656;57.746;11.780;2024-02-26T00:39:21;1.98;;;1.48;;
57826;SDS011;43656;57.746;11.780;2024-02-26T00:41:46;2.30;;;1.50;;
57826;SDS011;43656;57.746;11.780;2024-02-26T00:44:12;1.83;;;1.63;;
57826;SDS011;43656;57.746;11.780;2024-02-26T00:46:39;1.77;;;1.50;;
57826;SDS011;43656;57.746;11.780;2024-02-26T00:49:04;1.80;;;1.40;;
57826;SDS011;43656;57.746;11.780;2024-02-26T00:51:30;1.98;;;1.63;;
57826;SDS011;43656;57.746;11.780;2024-02-26T00:53:55;2.13;;;1.60;;
57826;SDS011;43656;57.746;11.780;2024-02-26T00:56:21;1.88;;;1.67;;
57826;SDS011;43656;57.746;11.780;2024-02-26T00:58:47;2.50;;;1.52;;
57826;SDS011;43656;57.746;11.780;2024-02-26T01:01:12;2.17;;;1.55;;
57826;SDS011;43656;57.746;11.780;2024-02-26T01:03:37;2.35;;;1.58;;
57826;SDS011;43656;57.746;11.780;2024-02-26T01:06:03;2.50;;;1.52;;
57826;SDS011;43656;57.746;11.780;2024-02-26T01:08:28;2.10;;;1.65;;
57826;SDS011;43656;57.746;11.780;2024-02-26T01:10:54;2.08;;;1.50;;
57826;SDS011;43656;57.746;11.780;2024-02-26T01:13:19;2.33;;;1.60;;
57826;SDS011;43656;57.746;11.780;2024-02-26T01:15:45;1.90;;;1.50;;
57826;SDS011;43656;57.746;11.780;2024-02-26T01:18:10;3.13;;;1.75;;
57826;SDS011;43656;57.746;11.780;2024-02-26T01:20:36;2.10;;;1.77;;
57826;SDS011;43656;57.746;11.780;2024-02-26T01:23:02;2.50;;;1.83;;
57826;SDS011;43656;57.746;11.780;2024-02-26T01:25:27;1.83;;;1.63;;
57826;SDS011;43656;57.746;11.780;2024-02-26T01:27:53;3.05;;;2.00;;
57826;SDS011;43656;57.746;11.780;2024-02-26T01:30:18;3.67;;;1.92;;
57826;SDS011;43656;57.746;11.780;2024-02-26T01:32:44;4.07;;;1.80;;
57826;SDS011;43656;57.746;11.780;2024-02-26T01:35:09;2.55;;;1.73;;
57826;SDS011;43656;57.746;11.780;2024-02-26T01:37:37;2.47;;;2.00;;
57826;SDS011;43656;57.746;11.780;2024-02-26T01:40:02;3.35;;;1.90;;
57826;SDS011;43656;57.746;11.780;2024-02-26T01:42:29;2.85;;;1.92;;
57826;SDS011;43656;57.746;11.780;2024-02-26T01:44:56;2.90;;;1.80;;
57826;SDS011;43656;57.746;11.780;2024-02-26T01:47:21;1.77;;;1.60;;
57826;SDS011;43656;57.746;11.780;2024-02-26T01:49:48;2.17;;;1.70;;
57826;SDS011;43656;57.746;11.780;2024-02-26T01:52:14;2.78;;;2.17;;
57826;SDS011;43656;57.746;11.780;2024-02-26T01:54:40;3.75;;;2.13;;
57826;SDS011;43656;57.746;11.780;2024-02-26T01:57:07;2.60;;;2.00;;
57826;SDS011;43656;57.746;11.780;2024-02-26T01:59:33;3.75;;;2.08;;
57826;SDS011;43656;57.746;11.780;2024-02-26T02:02:00;3.30;;;2.17;;
57826;SDS011;43656;57.746;11.780;2024-02-26T02:04:28;4.15;;;2.60;;
57826;SDS011;43656;57.746;11.780;2024-02-26T02:06:54;3.38;;;2.50;;
57826;SDS011;43656;57.746;11.780;2024-02-26T02:09:19;3.78;;;2.88;;
57826;SDS011;43656;57.746;11.780;2024-02-26T02:11:45;4.05;;;2.55;;
57826;SDS011;43656;57.746;11.780;2024-02-26T02:14:11;3.80;;;2.70;;
57826;SDS011;43656;57.746;11.780;2024-02-26T02:16:37;3.70;;;2.70;;
57826;SDS011;43656;57.746;11.780;2024-02-26T02:19:02;4.63;;;2.88;;
57826;SDS011;43656;57.746;11.780;2024-02-26T02:21:27;5.90;;;3.10;;
57826;SDS011;43656;57.746;11.780;2024-02-26T02:23:53;3.88;;;2.83;;
57826;SDS011;43656;57.746;11.780;2024-02-26T02:26:18;5.03;;;2.85;;
57826;SDS011;43656;57.746;11.780;2024-02-26T02:28:44;6.82;;;3.30;;
57826;SDS011;43656;57.746;11.780;2024-02-26T02:31:11;6.80;;;4.30;;
57826;SDS011;43656;57.746;11.780;2024-02-26T02:33:37;4.03;;;3.40;;
57826;SDS011;43656;57.746;11.780;2024-02-26T02:36:03;4.78;;;3.45;;
57826;SDS011;43656;57.746;11.780;2024-02-26T02:38:29;6.22;;;3.20;;
57826;SDS011;43656;57.746;11.780;2024-02-26T02:40:55;7.13;;;4.05;;
57826;SDS011;43656;57.746;11.780;2024-02-26T02:43:21;5.53;;;3.78;;
57826;SDS011;43656;57.746;11.780;2024-02-26T02:45:46;6.22;;;3.92;;
57826;SDS011;43656;57.746;11.780;2024-02-26T02:48:12;6.93;;;3.67;;
57826;SDS011;43656;57.746;11.780;2024-02-26T02:50:37;5.30;;;3.60;;
57826;SDS011;43656;57.746;11.780;2024-02-26T02:53:03;5.20;;;3.50;;
57826;SDS011;43656;57.746;11.780;2024-02-26T02:55:28;4.57;;;3.08;;
57826;SDS011;43656;57.746;11.780;2024-02-26T02:57:54;4.65;;;3.83;;
57826;SDS011;43656;57.746;11.780;2024-02-26T03:00:19;6.05;;;4.32;;
57826;SDS011;43656;57.746;11.780;2024-02-26T03:02:45;5.63;;;3.83;;
57826;SDS011;43656;57.746;11.780;2024-02-26T03:05:11;5.72;;;4.07;;
57826;SDS011;43656;57.746;11.780;2024-02-26T03:07:36;5.32;;;4.18;;
57826;SDS011;43656;57.746;11.780;2024-02-26T03:10:02;5.28;;;4.18;;
57826;SDS011;43656;57.746;11.780;2024-02-26T03:12:28;5.20;;;4.43;;
57826;SDS011;43656;57.746;11.780;2024-02-26T03:14:55;5.53;;;3.90;;
57826;SDS011;43656;57.746;11.780;2024-02-26T03:17:20;8.20;;;4.50;;
57826;SDS011;43656;57.746;11.780;2024-02-26T03:19:46;5.45;;;4.22;;
57826;SDS011;43656;57.746;11.780;2024-02-26T03:22:12;6.80;;;4.93;;
57826;SDS011;43656;57.746;11.780;2024-02-26T03:24:38;6.63;;;4.18;;
57826;SDS011;43656;57.746;11.780;2024-02-26T03:27:03;6.43;;;4.63;;
57826;SDS011;43656;57.746;11.780;2024-02-26T03:29:34;6.03;;;4.60;;
57826;SDS011;43656;57.746;11.780;2024-02-26T03:31:59;5.35;;;4.82;;
57826;SDS011;43656;57.746;11.780;2024-02-26T03:34:25;7.70;;;4.32;;
57826;SDS011;43656;57.746;11.780;2024-02-26T03:36:51;7.05;;;4.40;;
57826;SDS011;43656;57.746;11.780;2024-02-26T03:39:17;7.60;;;4.65;;
57826;SDS011;43656;57.746;11.780;2024-02-26T03:41:42;5.70;;;4.43;;
57826;SDS011;43656;57.746;11.780;2024-02-26T03:44:07;4.90;;;4.40;;
57826;SDS011;43656;57.746;11.780;2024-02-26T03:46:33;5.68;;;4.35;;
57826;SDS011;43656;57.746;11.780;2024-02-26T03:48:58;6.40;;;4.57;;
57826;SDS011;43656;57.746;11.780;2024-02-26T03:51:24;6.05;;;4.68;;
57826;SDS011;43656;57.746;11.780;2024-02-26T03:53:49;9.13;;;4.47;;
57826;SDS011;43656;57.746;11.780;2024-02-26T03:56:14;7.47;;;4.53;;
57826;SDS011;43656;57.746;11.780;2024-02-26T03:58:40;5.15;;;4.60;;
57826;SDS011;43656;57.746;11.780;2024-02-26T04:01:08;5.82;;;4.75;;
57826;SDS011;43656;57.746;11.780;2024-02-26T04:03:34;6.90;;;4.75;;
57826;SDS011;43656;57.746;11.780;2024-02-26T04:05:59;7.63;;;4.57;;
57826;SDS011;43656;57.746;11.780;2024-02-26T04:08:25;7.32;;;4.90;;
57826;SDS011;43656;57.746;11.780;2024-02-26T04:10:52;5.90;;;5.18;;
57826;SDS011;43656;57.746;11.780;2024-02-26T04:13:17;5.38;;;4.10;;
57826;SDS011;43656;57.746;11.780;2024-02-26T04:15:43;6.28;;;4.70;;
57826;SDS011;43656;57.746;11.780;2024-02-26T04:18:08;6.38;;;4.43;;
57826;SDS011;43656;57.746;11.780;2024-02-26T04:20:34;9.82;;;5.20;;
57826;SDS011;43656;57.746;11.780;2024-02-26T04:22:59;7.30;;;4.30;;
57826;SDS011;43656;57.746;11.780;2024-02-26T04:25:26;6.18;;;5.05;;
57826;SDS011;43656;57.746;11.780;2024-02-26T04:27:52;8.32;;;4.93;;
57826;SDS011;43656;57.746;11.780;2024-02-26T04:30:17;6.55;;;4.68;;
57826;SDS011;43656;57.746;11.780;2024-02-26T04:32:43;7.72;;;4.68;;
57826;SDS011;43656;57.746;11.780;2024-02-26T04:35:08;5.35;;;4.50;;
57826;SDS011;43656;57.746;11.780;2024-02-26T04:37:34;7.43;;;4.68;;
57826;SDS011;43656;57.746;11.780;2024-02-26T04:39:59;7.20;;;4.82;;
57826;SDS011;43656;57.746;11.780;2024-02-26T04:42:25;7.60;;;5.03;;
57826;SDS011;43656;57.746;11.780;2024-02-26T04:44:51;5.90;;;5.28;;
57826;SDS011;43656;57.746;11.780;2024-02-26T04:47:17;6.53;;;5.22;;
57826;SDS011;43656;57.746;11.780;2024-02-26T04:49:42;6.28;;;4.85;;
57826;SDS011;43656;57.746;11.780;2024-02-26T04:52:07;6.70;;;5.70;;
57826;SDS011;43656;57.746;11.780;2024-02-26T04:54:33;8.70;;;5.90;;
57826;SDS011;43656;57.746;11.780;2024-02-26T04:56:59;7.40;;;5.63;;
57826;SDS011;43656;57.746;11.780;2024-02-26T04:59:24;6.22;;;5.07;;
57826;SDS011;43656;57.746;11.780;2024-02-26T05:01:50;7.50;;;5.50;;
57826;SDS011;43656;57.746;11.780;2024-02-26T05:04:17;7.25;;;5.38;;
57826;SDS011;43656;57.746;11.780;2024-02-26T05:06:43;9.05;;;5.68;;
57826;SDS011;43656;57.746;11.780;2024-02-26T05:09:08;7.57;;;5.57;;
57826;SDS011;43656;57.746;11.780;2024-02-26T05:11:34;6.93;;;4.90;;
57826;SDS011;43656;57.746;11.780;2024-02-26T05:14:00;5.68;;;5.05;;
57826;SDS011;43656;57.746;11.780;2024-02-26T05:16:26;6.65;;;4.70;;
57826;SDS011;43656;57.746;11.780;2024-02-26T05:18:52;6.80;;;5.38;;
57826;SDS011;43656;57.746;11.780;2024-02-26T05:21:18;7.00;;;5.28;;
57826;SDS011;43656;57.746;11.780;2024-02-26T05:23:43;8.00;;;5.25;;
57826;SDS011;43656;57.746;11.780;2024-02-26T05:26:09;6.57;;;4.68;;
57826;SDS011;43656;57.746;11.780;2024-02-26T05:28:35;6.57;;;4.70;;
57826;SDS011;43656;57.746;11.780;2024-02-26T05:31:01;7.22;;;4.90;;
57826;SDS011;43656;57.746;11.780;2024-02-26T05:33:28;7.95;;;5.30;;
57826;SDS011;43656;57.746;11.780;2024-02-26T05:35:53;6.32;;;4.93;;
57826;SDS011;43656;57.746;11.780;2024-02-26T05:38:19;6.80;;;5.25;;
57826;SDS011;43656;57.746;11.780;2024-02-26T05:40:45;6.65;;;5.22;;
57826;SDS011;43656;57.746;11.780;2024-02-26T05:43:11;6.93;;;5.18;;
57826;SDS011;43656;57.746;11.780;2024-02-26T05:45:36;7.50;;;4.88;;
57826;SDS011;43656;57.746;11.780;2024-02-26T05:48:02;6.38;;;4.90;;
57826;SDS011;43656;57.746;11.780;2024-02-26T05:50:28;7.75;;;5.15;;
57826;SDS011;43656;57.746;11.780;2024-02-26T05:52:53;6.38;;;5.20;;
57826;SDS011;43656;57.746;11.780;2024-02-26T05:55:19;7.38;;;5.35;;
57826;SDS011;43656;57.746;11.780;2024-02-26T05:57:46;9.02;;;5.60;;
57826;SDS011;43656;57.746;11.780;2024-02-26T06:00:12;9.30;;;5.63;;
57826;SDS011;43656;57.746;11.780;2024-02-26T06:02:38;8.95;;;5.47;;
57826;SDS011;43656;57.746;11.780;2024-02-26T06:05:03;7.30;;;5.10;;
57826;SDS011;43656;57.746;11.780;2024-02-26T06:07:29;6.72;;;5.10;;
57826;SDS011;43656;57.746;11.780;2024-02-26T06:09:55;7.35;;;5.13;;
57826;SDS011;43656;57.746;11.780;2024-02-26T06:12:20;7.28;;;5.32;;
57826;SDS011;43656;57.746;11.780;2024-02-26T06:14:46;6.22;;;5.10;;
57826;SDS011;43656;57.746;11.780;2024-02-26T06:17:12;6.75;;;5.78;;
57826;SDS011;43656;57.746;11.780;2024-02-26T06:19:37;7.22;;;5.63;;
57826;SDS011;43656;57.746;11.780;2024-02-26T06:22:03;7.28;;;5.25;;
57826;SDS011;43656;57.746;11.780;2024-02-26T06:24:28;8.65;;;5.57;;
57826;SDS011;43656;57.746;11.780;2024-02-26T06:26:53;7.25;;;5.72;;
57826;SDS011;43656;57.746;11.780;2024-02-26T06:29:19;6.85;;;5.30;;
57826;SDS011;43656;57.746;11.780;2024-02-26T06:31:44;7.57;;;5.63;;
57826;SDS011;43656;57.746;11.780;2024-02-26T06:34:10;7.13;;;5.47;;
57826;SDS011;43656;57.746;11.780;2024-02-26T06:36:36;8.23;;;5.72;;
57826;SDS011;43656;57.746;11.780;2024-02-26T06:39:02;8.45;;;6.13;;
57826;SDS011;43656;57.746;11.780;2024-02-26T06:41:27;9.30;;;6.35;;
57826;SDS011;43656;57.746;11.780;2024-02-26T06:43:55;8.85;;;6.28;;
57826;SDS011;43656;57.746;11.780;2024-02-26T06:46:20;7.88;;;6.10;;
57826;SDS011;43656;57.746;11.780;2024-02-26T06:48:47;8.40;;;6.13;;
57826;SDS011;43656;57.746;11.780;2024-02-26T06:51:13;10.23;;;8.00;;
57826;SDS011;43656;57.746;11.780;2024-02-26T06:53:39;9.65;;;6.72;;
57826;SDS011;43656;57.746;11.780;2024-02-26T06:56:04;7.25;;;5.75;;
57826;SDS011;43656;57.746;11.780;2024-02-26T06:58:29;10.68;;;5.97;;
57826;SDS011;43656;57.746;11.780;2024-02-26T07:00:55;8.27;;;5.95;;
57826;SDS011;43656;57.746;11.780;2024-02-26T07:03:20;11.07;;;6.38;;
57826;SDS011;43656;57.746;11.780;2024-02-26T07:05:47;8.80;;;6.93;;
57826;SDS011;43656;57.746;11.780;2024-02-26T07:08:13;8.45;;;7.32;;
57826;SDS011;43656;57.746;11.780;2024-02-26T07:10:38;9.48;;;7.00;;
57826;SDS011;43656;57.746;11.780;2024-02-26T07:13:04;9.02;;;7.00;;
57826;SDS011;43656;57.746;11.780;2024-02-26T07:15:29;12.10;;;7.15;;
57826;SDS011;43656;57.746;11.780;2024-02-26T07:17:54;7.93;;;6.75;;
57826;SDS011;43656;57.746;11.780;2024-02-26T07:20:20;8.20;;;6.40;;
57826;SDS011;43656;57.746;11.780;2024-02-26T07:22:45;10.38;;;6.85;;
57826;SDS011;43656;57.746;11.780;2024-02-26T07:25:11;9.60;;;6.88;;
57826;SDS011;43656;57.746;11.780;2024-02-26T07:27:39;9.23;;;6.05;;
57826;SDS011;43656;57.746;11.780;2024-02-26T07:30:05;9.98;;;6.60;;
57826;SDS011;43656;57.746;11.780;2024-02-26T07:32:33;11.88;;;7.70;;
57826;SDS011;43656;57.746;11.780;2024-02-26T07:34:58;10.00;;;7.05;;
57826;SDS011;43656;57.746;11.780;2024-02-26T07:37:24;9.23;;;6.60;;
57826;SDS011;43656;57.746;11.780;2024-02-26T07:39:49;10.02;;;6.95;;
57826;SDS011;43656;57.746;11.780;2024-02-26T07:42:14;8.60;;;6.75;;
57826;SDS011;43656;57.746;11.780;2024-02-26T07:44:40;7.97;;;6.57;;
57826;SDS011;43656;57.746;11.780;2024-02-26T07:47:08;8.02;;;6.82;;
57826;SDS011;43656;57.746;11.780;2024-02-26T07:49:36;10.65;;;7.40;;
57826;SDS011;43656;57.746;11.780;2024-02-26T07:52:02;8.10;;;7.07;;
57826;SDS011;43656;57.746;11.780;2024-02-26T07:54:27;9.95;;;7.32;;
57826;SDS011;43656;57.746;11.780;2024-02-26T07:56:53;10.20;;;7.10;;
57826;SDS011;43656;57.746;11.780;2024-02-26T07:59:18;10.10;;;6.70;;
57826;SDS011;43656;57.746;11.780;2024-02-26T08:01:43;11.38;;;7.15;;
57826;SDS011;43656;57.746;11.780;2024-02-26T08:04:09;8.45;;;7.15;;
57826;SDS011;43656;57.746;11.780;2024-02-26T08:06:34;10.32;;;7.13;;
57826;SDS011;43656;57.746;11.780;2024-02-26T08:09:00;8.65;;;7.25;;
57826;SDS011;43656;57.746;11.780;2024-02-26T08:11:25;18.52;;;8.38;;
57826;SDS011;43656;57.746;11.780;2024-02-26T08:13:50;8.18;;;7.13;;
57826;SDS011;43656;57.746;11.780;2024-02-26T08:16:16;9.98;;;7.57;;
57826;SDS011;43656;57.746;11.780;2024-02-26T08:18:41;9.70;;;6.95;;
57826;SDS011;43656;57.746;11.780;2024-02-26T08:21:07;11.52;;;7.00;;
57826;SDS011;43656;57.746;11.780;2024-02-26T08:23:33;8.30;;;7.13;;
57826;SDS011;43656;57.746;11.780;2024-02-26T08:25:59;9.27;;;7.22;;
57826;SDS011;43656;57.746;11.780;2024-02-26T08:28:24;8.73;;;6.38;;
57826;SDS011;43656;57.746;11.780;2024-02-26T08:30:50;7.70;;;6.32;;
57826;SDS011;43656;57.746;11.780;2024-02-26T08:33:15;8.48;;;5.90;;
57826;SDS011;43656;57.746;11.780;2024-02-26T08:35:40;6.65;;;5.85;;
57826;SDS011;43656;57.746;11.780;2024-02-26T08:38:06;7.90;;;5.50;;
57826;SDS011;43656;57.746;11.780;2024-02-26T08:40:32;8.88;;;5.63;;
57826;SDS011;43656;57.746;11.780;2024-02-26T08:42:58;7.38;;;6.00;;
57826;SDS011;43656;57.746;11.780;2024-02-26T08:45:23;9.52;;;5.97;;
57826;SDS011;43656;57.746;11.780;2024-02-26T08:47:49;6.93;;;5.32;;
57826;SDS011;43656;57.746;11.780;2024-02-26T08:50:14;6.95;;;5.30;;
57826;SDS011;43656;57.746;11.780;2024-02-26T08:52:40;5.68;;;4.82;;
57826;SDS011;43656;57.746;11.780;2024-02-26T08:55:06;5.10;;;4.60;;
57826;SDS011;43656;57.746;11.780;2024-02-26T08:57:33;6.60;;;4.88;;
57826;SDS011;43656;57.746;11.780;2024-02-26T08:59:59;6.57;;;4.90;;
57826;SDS011;43656;57.746;11.780;2024-02-26T09:02:25;9.65;;;5.10;;
57826;SDS011;43656;57.746;11.780;2024-02-26T09:04:51;5.60;;;4.15;;
57826;SDS011;43656;57.746;11.780;2024-02-26T09:07:19;6.55;;;4.65;;
57826;SDS011;43656;57.746;11.780;2024-02-26T09:09:44;7.05;;;4.88;;
57826;SDS011;43656;57.746;11.780;2024-02-26T09:12:10;7.15;;;4.90;;
57826;SDS011;43656;57.746;11.780;2024-02-26T09:14:35;6.95;;;5.05;;
57826;SDS011;43656;57.746;11.780;2024-02-26T09:17:01;7.78;;;5.22;;
57826;SDS011;43656;57.746;11.780;2024-02-26T09:19:26;9.13;;;5.45;;
57826;SDS011;43656;57.746;11.780;2024-02-26T09:21:55;6.35;;;4.97;;
57826;SDS011;43656;57.746;11.780;2024-02-26T09:24:22;8.55;;;5.40;;
57826;SDS011;43656;57.746;11.780;2024-02-26T09:26:48;7.40;;;5.03;;
57826;SDS011;43656;57.746;11.780;2024-02-26T09:29:14;6.63;;;5.50;;
57826;SDS011;43656;57.746;11.780;2024-02-26T09:31:39;6.80;;;5.47;;
57826;SDS011;43656;57.746;11.780;2024-02-26T09:34:06;8.23;;;6.13;;
57826;SDS011;43656;57.746;11.780;2024-02-26T09:36:32;7.00;;;5.80;;
57826;SDS011;43656;57.746;11.780;2024-02-26T09:38:58;9.13;;;5.88;;
57826;SDS011;43656;57.746;11.780;2024-02-26T09:41:23;7.80;;;6.40;;
57826;SDS011;43656;57.746;11.780;2024-02-26T09:43:53;9.80;;;6.43;;
57826;SDS011;43656;57.746;11.780;2024-02-26T09:46:21;8.57;;;6.25;;
57826;SDS011;43656;57.746;11.780;2024-02-26T09:48:47;8.32;;;5.90;;
57826;SDS011;43656;57.746;11.780;2024-02-26T09:51:13;9.70;;;5.70;;
57826;SDS011;43656;57.746;11.780;2024-02-26T09:53:40;8.80;;;5.50;;
57826;SDS011;43656;57.746;11.780;2024-02-26T09:56:09;10.05;;;5.72;;
57826;SDS011;43656;57.746;11.780;2024-02-26T09:58:36;7.50;;;5.22;;
57826;SDS011;43656;57.746;11.780;2024-02-26T10:01:03;6.88;;;5.05;;
57826;SDS011;43656;57.746;11.780;2024-02-26T10:03:38;6.30;;;5.05;;
57826;SDS011;43656;57.746;11.780;2024-02-26T10:06:07;7.55;;;4.97;;
57826;SDS011;43656;57.746;11.780;2024-02-26T10:08:35;7.57;;;4.80;;
57826;SDS011;43656;57.746;11.780;2024-02-26T10:11:02;7.00;;;4.93;;
57826;SDS011;43656;57.746;11.780;2024-02-26T10:13:28;7.93;;;5.18;;
57826;SDS011;43656;57.746;11.780;2024-02-26T10:15:53;7.05;;;5.30;;
57826;SDS011;43656;57.746;11.780;2024-02-26T10:18:18;7.65;;;5.38;;
57826;SDS011;43656;57.746;11.780;2024-02-26T10:21:00;6.82;;;4.60;;
57826;SDS011;43656;57.746;11.780;2024-02-26T10:23:26;7.55;;;4.90;;
57826;SDS011;43656;57.746;11.780;2024-02-26T10:25:52;6.32;;;4.90;;
57826;SDS011;43656;57.746;11.780;2024-02-26T10:28:19;5.82;;;4.50;;
57826;SDS011;43656;57.746;11.780;2024-02-26T10:30:45;5.70;;;4.38;;
57826;SDS011;43656;57.746;11.780;2024-02-26T10:33:10;5.90;;;4.15;;
57826;SDS011;43656;57.746;11.780;2024-02-26T10:35:36;6.25;;;3.92;;
57826;SDS011;43656;57.746;11.780;2024-02-26T10:38:05;5.10;;;3.50;;
57826;SDS011;43656;57.746;11.780;2024-02-26T10:40:33;7.82;;;4.00;;
57826;SDS011;43656;57.746;11.780;2024-02-26T10:42:58;4.00;;;3.20;;
57826;SDS011;43656;57.746;11.780;2024-02-26T10:45:24;7.25;;;3.80;;
57826;SDS011;43656;57.746;11.780;2024-02-26T10:47:50;5.80;;;3.75;;
57826;SDS011;43656;57.746;11.780;2024-02-26T10:50:15;5.80;;;3.55;;
57826;SDS011;43656;57.746;11.780;2024-02-26T10:52:42;6.88;;;3.60;;
57826;SDS011;43656;57.746;11.780;2024-02-26T10:55:07;6.03;;;3.40;;
57826;SDS011;43656;57.746;11.780;2024-02-26T10:57:39;7.95;;;3.03;;
57826;SDS011;43656;57.746;11.780;2024-02-26T11:00:05;3.97;;;2.65;;
57826;SDS011;43656;57.746;11.780;2024-02-26T11:02:33;4.57;;;2.28;;
57826;SDS011;43656;57.746;11.780;2024-02-26T11:05:02;2.50;;;2.10;;
57826;SDS011;43656;57.746;11.780;2024-02-26T11:07:29;3.08;;;2.20;;
57826;SDS011;43656;57.746;11.780;2024-02-26T11:09:56;2.42;;;2.22;;
57826;SDS011;43656;57.746;11.780;2024-02-26T11:12:24;2.97;;;2.38;;
57826;SDS011;43656;57.746;11.780;2024-02-26T11:14:50;3.20;;;2.60;;
57826;SDS011;43656;57.746;11.780;2024-02-26T11:17:19;3.05;;;2.47;;
57826;SDS011;43656;57.746;11.780;2024-02-26T11:19:46;3.20;;;2.67;;
57826;SDS011;43656;57.746;11.780;2024-02-26T11:22:14;4.07;;;2.90;;
57826;SDS011;43656;57.746;11.780;2024-02-26T11:24:41;4.22;;;3.20;;
57826;SDS011;43656;57.746;11.780;2024-02-26T11:27:07;4.10;;;3.47;;
57826;SDS011;43656;57.746;11.780;2024-02-26T11:29:41;4.88;;;3.78;;
57826;SDS011;43656;57.746;11.780;2024-02-26T11:32:11;5.75;;;3.60;;
57826;SDS011;43656;57.746;11.780;2024-02-26T11:34:36;3.42;;;3.13;;
57826;SDS011;43656;57.746;11.780;2024-02-26T11:37:13;4.32;;;3.22;;
57826;SDS011;43656;57.746;11.780;2024-02-26T11:39:42;3.53;;;3.08;;
57826;SDS011;43656;57.746;11.780;2024-02-26T11:42:10;6.05;;;2.95;;
57826;SDS011;43656;57.746;11.780;2024-02-26T11:44:39;3.30;;;3.00;;
57826;SDS011;43656;57.746;11.780;2024-02-26T11:47:12;3.88;;;2.95;;
57826;SDS011;43656;57.746;11.780;2024-02-26T11:49:39;3.55;;;2.65;;
57826;SDS011;43656;57.746;11.780;2024-02-26T11:52:06;3.25;;;2.80;;
57826;SDS011;43656;57.746;11.780;2024-02-26T11:54:52;4.57;;;2.95;;
57826;SDS011;43656;57.746;11.780;2024-02-26T11:57:25;4.57;;;3.20;;
57826;SDS011;43656;57.746;11.780;2024-02-26T12:00:12;3.40;;;3.10;;
57826;SDS011;43656;57.746;11.780;2024-02-26T12:05:17;4.03;;;3.63;;
57826;SDS011;43656;57.746;11.780;2024-02-26T12:07:45;5.45;;;3.72;;
57826;SDS011;43656;57.746;11.780;2024-02-26T12:10:28;4.45;;;3.63;;
57826;SDS011;43656;57.746;11.780;2024-02-26T12:15:41;5.15;;;4.30;;
57826;SDS011;43656;57.746;11.780;2024-02-26T12:18:08;5.32;;;4.10;;
57826;SDS011;43656;57.746;11.780;2024-02-26T12:20:36;4.05;;;3.75;;
57826;SDS011;43656;57.746;11.780;2024-02-26T12:23:02;4.97;;;3.90;;
57826;SDS011;43656;57.746;11.780;2024-02-26T12:25:32;4.22;;;3.35;;
57826;SDS011;43656;57.746;11.780;2024-02-26T12:27:59;4.00;;;3.60;;
57826;SDS011;43656;57.746;11.780;2024-02-26T12:30:25;5.18;;;3.60;;
57826;SDS011;43656;57.746;11.780;2024-02-26T12:32:51;4.20;;;2.83;;
57826;SDS011;43656;57.746;11.780;2024-02-26T12:35:22;3.55;;;2.85;;
57826;SDS011;43656;57.746;11.780;2024-02-26T12:37:47;5.45;;;3.38;;
57826;SDS011;43656;57.746;11.780;2024-02-26T12:40:13;8.38;;;3.22;;
57826;SDS011;43656;57.746;11.780;2024-02-26T12:42:39;3.53;;;3.10;;
57826;SDS011;43656;57.746;11.780;2024-02-26T12:45:06;3.60;;;2.97;;
57826;SDS011;43656;57.746;11.780;2024-02-26T12:47:37;3.75;;;2.47;;
57826;SDS011;43656;57.746;11.780;2024-02-26T12:50:03;2.78;;;2.40;;
57826;SDS011;43656;57.746;11.780;2024-02-26T12:52:30;2.67;;;2.47;;
57826;SDS011;43656;57.746;11.780;2024-02-26T12:55:00;3.13;;;2.65;;
57826;SDS011;43656;57.746;11.780;2024-02-26T12:57:32;2.65;;;2.45;;
57826;SDS011;43656;57.746;11.780;2024-02-26T13:00:02;3.00;;;2.70;;
57826;SDS011;43656;57.746;11.780;2024-02-26T13:02:29;3.40;;;2.80;;
57826;SDS011;43656;57.746;11.780;2024-02-26T13:04:56;2.95;;;2.63;;
57826;SDS011;43656;57.746;11.780;2024-02-26T13:07:22;3.30;;;2.60;;
57826;SDS011;43656;57.746;11.780;2024-02-26T13:09:48;3.83;;;2.80;;
57826;SDS011;43656;57.746;11.780;2024-02-26T13:12:13;3.42;;;3.08;;
57826;SDS011;43656;57.746;11.780;2024-02-26T13:14:39;3.25;;;2.83;;
57826;SDS011;43656;57.746;11.780;2024-02-26T13:17:05;5.07;;;3.95;;
57826;SDS011;43656;57.746;11.780;2024-02-26T13:19:31;4.95;;;4.40;;
57826;SDS011;43656;57.746;11.780;2024-02-26T13:22:02;5.45;;;4.55;;
57826;SDS011;43656;57.746;11.780;2024-02-26T13:24:28;4.50;;;4.10;;
57826;SDS011;43656;57.746;11.780;2024-02-26T13:26:56;4.55;;;4.10;;
57826;SDS011;43656;57.746;11.780;2024-02-26T13:29:22;5.30;;;4.72;;
57826;SDS011;43656;57.746;11.780;2024-02-26T13:31:47;5.95;;;4.80;;
57826;SDS011;43656;57.746;11.780;2024-02-26T13:34:27;6.82;;;5.78;;
57826;SDS011;43656;57.746;11.780;2024-02-26T13:36:55;7.20;;;5.00;;
57826;SDS011;43656;57.746;11.780;2024-02-26T13:39:25;5.57;;;5.03;;
57826;SDS011;43656;57.746;11.780;2024-02-26T13:41:55;6.38;;;4.90;;
57826;SDS011;43656;57.746;11.780;2024-02-26T13:44:22;5.28;;;4.03;;
57826;SDS011;43656;57.746;11.780;2024-02-26T13:46:48;4.75;;;4.30;;
57826;SDS011;43656;57.746;11.780;2024-02-26T13:49:17;5.93;;;4.53;;
57826;SDS011;43656;57.746;11.780;2024-02-26T13:51:42;5.68;;;4.75;;
57826;SDS011;43656;57.746;11.780;2024-02-26T13:54:07;6.00;;;5.40;;
57826;SDS011;43656;57.746;11.780;2024-02-26T13:56:35;6.80;;;5.85;;
57826;SDS011;43656;57.746;11.780;2024-02-26T13:59:01;5.78;;;5.00;;
57826;SDS011;43656;57.746;11.780;2024-02-26T14:01:26;5.97;;;5.40;;
57826;SDS011;43656;57.746;11.780;2024-02-26T14:03:53;5.63;;;5.05;;
57826;SDS011;43656;57.746;11.780;2024-02-26T14:06:22;6.03;;;5.20;;
57826;SDS011;43656;57.746;11.780;2024-02-26T14:08:48;5.75;;;5.25;;
57826;SDS011;43656;57.746;11.780;2024-02-26T14:11:13;6.38;;;5.57;;
57826;SDS011;43656;57.746;11.780;2024-02-26T14:13:39;6.13;;;5.50;;
57826;SDS011;43656;57.746;11.780;2024-02-26T14:16:04;6.97;;;5.38;;
57826;SDS011;43656;57.746;11.780;2024-02-26T14:18:30;5.72;;;5.22;;
57826;SDS011;43656;57.746;11.780;2024-02-26T14:20:55;6.15;;;5.53;;
57826;SDS011;43656;57.746;11.780;2024-02-26T14:23:21;8.68;;;6.20;;
57826;SDS011;43656;57.746;11.780;2024-02-26T14:25:46;6.78;;;5.35;;
57826;SDS011;43656;57.746;11.780;2024-02-26T14:28:11;5.80;;;5.20;;
57826;SDS011;43656;57.746;11.780;2024-02-26T14:30:37;5.35;;;4.85;;
57826;SDS011;43656;57.746;11.780;2024-02-26T14:33:02;5.35;;;4.85;;